createdAt,value
2023-11-01T00:02:18.276Z,21
2023-11-01T00:07:54.824Z,20.9
2023-11-01T00:13:46.199Z,20.9
2023-11-01T00:19:23.517Z,20.9
2023-11-01T00:25:01.178Z,20.9
2023-11-01T00:30:53.015Z,20.9
2023-11-01T00:36:30.296Z,20.9
2023-11-01T00:42:06.296Z,21
2023-11-01T00:47:42.668Z,20.9
2023-11-01T00:53:19.630Z,20.9
2023-11-01T00:58:40.388Z,20.9
2023-11-01T01:04:18.524Z,20.9
2023-11-01T01:09:55.816Z,20.9
2023-11-01T01:15:31.859Z,20.9
2023-11-01T01:21:24.969Z,20.9
2023-11-01T01:27:02.089Z,20.9
2023-11-01T01:32:54.168Z,20.9
2023-11-01T01:38:30.104Z,20.9
2023-11-01T01:44:22.517Z,20.9
2023-11-01T01:50:06.036Z,20.9
2023-11-01T01:55:26.452Z,20.9
2023-11-01T02:00:48.570Z,20.9
2023-11-01T02:06:38.523Z,20.9
2023-11-01T02:12:15.046Z,20.9
2023-11-01T02:17:51.187Z,20.9
2023-11-01T02:23:27.448Z,20.9
2023-11-01T02:29:03.210Z,20.9
2023-11-01T02:34:40.080Z,20.9
2023-11-01T02:40:16.367Z,20.9
2023-11-01T02:46:08.156Z,20.9
2023-11-01T02:51:45.265Z,20.9
2023-11-01T02:57:05.709Z,20.8
2023-11-01T03:02:26.186Z,20.9
2023-11-01T03:08:03.263Z,20.8
2023-11-01T03:13:39.362Z,20.8
2023-11-01T03:19:15.561Z,20.8
2023-11-01T03:24:52.316Z,20.9
2023-11-01T03:30:28.279Z,20.8
2023-11-01T03:36:04.869Z,20.8
2023-11-01T03:41:57.191Z,20.9
2023-11-01T03:47:33.075Z,20.9
2023-11-01T03:53:25.397Z,20.8
2023-11-01T03:59:02.505Z,20.8
2023-11-01T04:04:40.437Z,20.8
2023-11-01T04:10:16.377Z,20.9
2023-11-01T04:16:08.018Z,20.9
2023-11-01T04:21:43.892Z,20.9
2023-11-01T04:27:19.743Z,20.9
2023-11-01T04:32:56.732Z,20.8
2023-11-01T04:38:32.897Z,20.9
2023-11-01T04:43:53.929Z,20.8
2023-11-01T04:49:17.448Z,20.9
2023-11-01T04:55:11.031Z,20.8
2023-11-01T05:00:47.398Z,20.9
2023-11-01T05:06:25.397Z,20.8
2023-11-01T05:12:17.139Z,20.9
2023-11-01T05:17:54.337Z,20.8
2023-11-01T05:23:30.446Z,20.8
2023-11-01T05:29:07.679Z,20.8
2023-11-01T05:34:46.381Z,20.8
2023-11-01T05:40:23.397Z,20.8
2023-11-01T05:45:29.013Z,20.8
2023-11-01T05:50:34.727Z,20.8
2023-11-01T05:56:26.345Z,20.8
2023-11-01T06:01:47.567Z,20.8
2023-11-01T06:07:09.058Z,20.8
2023-11-01T06:12:45.826Z,20.8
2023-11-01T06:18:06.283Z,20.8
2023-11-01T06:23:44.173Z,20.8
2023-11-01T06:29:05.383Z,20.8
2023-11-01T06:34:43.244Z,20.8
2023-11-01T06:40:20.472Z,20.9
2023-11-01T06:45:57.388Z,20.8
2023-11-01T06:51:34.765Z,20.9
2023-11-01T06:57:13.620Z,20.9
2023-11-01T07:02:35.586Z,20.9
2023-11-01T07:07:56.738Z,20.9
2023-11-01T07:13:32.997Z,20.9
2023-11-01T07:18:54.326Z,20.9
2023-11-01T07:24:30.704Z,21
2023-11-01T07:29:51.319Z,20.9
2023-11-01T07:35:28.259Z,21
2023-11-01T07:41:04.110Z,21.1
2023-11-01T07:46:40.061Z,21.1
2023-11-01T07:52:18.561Z,21.1
2023-11-01T07:57:54.618Z,21.1
2023-11-01T08:03:15.755Z,21.1
2023-11-01T08:29:50.636Z,21.1
2023-11-01T08:46:26.652Z,21.1
2023-11-01T09:23:51.206Z,21.2
2023-11-01T10:43:49.097Z,21.2
2023-11-01T11:01:01.151Z,21.2
2023-11-01T11:06:23.739Z,21.2
2023-11-01T11:12:22.521Z,21.2
2023-11-01T11:17:43.878Z,21.2
2023-11-01T11:23:09.896Z,21.3
2023-11-01T11:28:02.015Z,21.3
2023-11-01T11:33:42.102Z,21.2
2023-11-01T11:39:03.172Z,21.2
2023-11-01T11:44:23.731Z,21.3
2023-11-01T11:49:45.524Z,21.2
2023-11-01T11:55:22.843Z,21.3
2023-11-01T12:00:46.915Z,21.3
2023-11-01T12:05:52.848Z,21.3
2023-11-01T12:11:29.277Z,21.3
2023-11-01T12:17:05.847Z,21.3
2023-11-01T12:22:43.917Z,21.3
2023-11-01T12:28:05.365Z,21.3
2023-11-01T12:33:11.392Z,21.3
2023-11-01T12:38:17.629Z,21.3
2023-11-01T12:43:41.844Z,21.4
2023-11-01T12:49:03.755Z,21.4
2023-11-01T12:54:40.529Z,21.3
2023-11-01T13:00:35.903Z,21.4
2023-11-01T13:06:13.520Z,21.4
2023-11-01T13:11:50.088Z,21.4
2023-11-01T13:17:31.769Z,21.4
2023-11-01T13:23:26.620Z,21.4
2023-11-01T13:29:03.462Z,21.4
2023-11-01T13:34:57.665Z,21.4
2023-11-01T13:40:49.292Z,21.4
2023-11-01T13:46:26.351Z,21.5
2023-11-01T13:51:50.634Z,21.5
2023-11-01T13:57:40.258Z,21.5
2023-11-01T14:03:34.016Z,21.5
2023-11-01T14:09:30.016Z,21.6
2023-11-01T14:15:22.826Z,21.6
2023-11-01T14:21:02.858Z,21.6
2023-11-01T14:26:55.012Z,21.6
2023-11-01T14:32:31.127Z,21.6
2023-11-01T14:38:23.610Z,21.6
2023-11-01T14:44:00.784Z,21.6
2023-11-01T14:49:53.194Z,21.6
2023-11-01T14:55:30.181Z,21.6
2023-11-01T15:01:07.128Z,21.6
2023-11-01T15:06:43.613Z,21.6
2023-11-01T15:12:37.105Z,21.6
2023-11-01T15:18:14.729Z,21.5
2023-11-01T15:23:50.841Z,21.5
2023-11-01T15:29:44.208Z,21.5
2023-11-01T15:35:39.843Z,21.5
2023-11-01T15:41:34.150Z,21.5
2023-11-01T15:47:30.427Z,21.4
2023-11-01T15:53:26.133Z,21.5
2023-11-01T15:59:05.373Z,21.4
2023-11-01T16:04:47.059Z,21.4
2023-11-01T16:10:24.618Z,21.4
2023-11-01T16:16:04.399Z,21.4
2023-11-01T16:21:59.055Z,21.4
2023-11-01T16:27:51.545Z,21.4
2023-11-01T16:33:30.637Z,21.4
2023-11-01T16:39:08.663Z,21.4
2023-11-01T16:44:45.703Z,21.3
2023-11-01T16:50:41.253Z,21.4
2023-11-01T16:56:33.062Z,21.4
2023-11-01T17:02:29.504Z,21.4
2023-11-01T17:08:08.728Z,21.3
2023-11-01T17:13:45.229Z,21.4
2023-11-01T17:19:37.690Z,21.4
2023-11-01T17:25:28.856Z,21.3
2023-11-01T17:31:23.440Z,21.4
2023-11-01T17:36:48.144Z,21.3
2023-11-01T17:42:49.550Z,21.4
2023-11-01T17:48:41.662Z,21.4
2023-11-01T17:54:33.708Z,21.3
2023-11-01T18:00:29.838Z,21.4
2023-11-01T18:06:04.752Z,21.4
2023-11-01T18:11:27.686Z,21.4
2023-11-01T18:17:08.010Z,21.4
2023-11-01T18:22:51.221Z,21.4
2023-11-01T18:28:30.382Z,21.4
2023-11-01T18:34:09.594Z,21.4
2023-11-01T18:39:47.693Z,21.4
2023-11-01T18:45:26.664Z,21.4
2023-11-01T18:51:04.419Z,21.4
2023-11-01T18:56:58.455Z,21.3
2023-11-01T19:02:36.318Z,21.4
2023-11-01T19:08:30.596Z,21.4
2023-11-01T19:14:23.762Z,21.3
2023-11-01T19:20:06.752Z,21.3
2023-11-01T19:26:00.737Z,21.3
2023-11-01T19:32:00.528Z,21.3
2023-11-01T19:37:47.853Z,21.3
2023-11-01T19:43:10.781Z,21.3
2023-11-01T19:48:49.365Z,21.3
2023-11-01T19:54:31.476Z,21.3
2023-11-01T20:00:09.862Z,21.3
2023-11-01T20:05:33.847Z,21.3
2023-11-01T20:11:12.660Z,21.3
2023-11-01T20:16:58.584Z,21.3
2023-11-01T20:22:21.829Z,21.3
2023-11-01T20:28:00.448Z,21.3
2023-11-01T20:33:25.989Z,21.2
2023-11-01T20:39:19.540Z,21.2
2023-11-01T20:50:19.831Z,21.2
2023-11-01T21:12:20.316Z,21.1
2023-11-01T21:18:01.110Z,21.1
2023-11-01T21:29:04.271Z,21.1
2023-11-01T21:34:42.052Z,21.1
2023-11-01T21:40:29.745Z,21.1
2023-11-01T21:46:16.398Z,21
2023-11-01T21:51:38.582Z,21
2023-11-01T21:56:59.408Z,21
2023-11-01T22:02:30.471Z,20.9
2023-11-01T22:08:01.388Z,20.9
2023-11-01T22:13:37.375Z,20.9
2023-11-01T22:19:14.471Z,20.9
2023-11-01T22:24:52.629Z,20.9
2023-11-01T22:30:45.820Z,20.9
2023-11-01T22:36:23.393Z,20.9
2023-11-01T22:42:15.635Z,20.9
2023-11-01T22:47:52.847Z,20.9
2023-11-01T22:53:44.623Z,20.8
2023-11-01T22:59:34.723Z,20.8
2023-11-01T23:05:26.151Z,20.8
2023-11-01T23:11:02.806Z,20.9
2023-11-01T23:16:39.861Z,20.8
2023-11-01T23:22:17.047Z,20.8
2023-11-01T23:27:55.794Z,20.8
2023-11-01T23:33:42.573Z,20.8
2023-11-01T23:39:28.040Z,20.8
2023-11-01T23:45:05.408Z,20.8
2023-11-01T23:51:33.757Z,20.8
2023-11-01T23:57:25.825Z,20.7
